sensor_id;sensor_type;location;lat;lon;timestamp;P1;durP1;ratioP1;P2;durP2;ratioP2
59127;SDS011;44912;52.754;5.994;2024-01-10T00:01:55;22.15;;;12.43;;
59127;SDS011;44912;52.754;5.994;2024-01-10T00:04:20;19.73;;;12.23;;
59127;SDS011;44912;52.754;5.994;2024-01-10T00:06:46;18.17;;;11.75;;
59127;SDS011;44912;52.754;5.994;2024-01-10T00:09:12;20.40;;;12.40;;
59127;SDS011;44912;52.754;5.994;2024-01-10T00:11:37;23.48;;;12.85;;
59127;SDS011;44912;52.754;5.994;2024-01-10T00:14:03;19.35;;;11.98;;
59127;SDS011;44912;52.754;5.994;2024-01-10T00:16:29;19.98;;;12.57;;
59127;SDS011;44912;52.754;5.994;2024-01-10T00:18:55;20.17;;;12.55;;
59127;SDS011;44912;52.754;5.994;2024-01-10T00:21:20;20.73;;;13.80;;
59127;SDS011;44912;52.754;5.994;2024-01-10T00:23:46;20.90;;;12.98;;
59127;SDS011;44912;52.754;5.994;2024-01-10T00:26:12;18.98;;;11.55;;
59127;SDS011;44912;52.754;5.994;2024-01-10T00:28:37;18.05;;;11.63;;
59127;SDS011;44912;52.754;5.994;2024-01-10T00:31:03;20.77;;;12.13;;
59127;SDS011;44912;52.754;5.994;2024-01-10T00:33:29;20.88;;;12.45;;
59127;SDS011;44912;52.754;5.994;2024-01-10T00:35:54;21.13;;;12.05;;
59127;SDS011;44912;52.754;5.994;2024-01-10T00:38:20;21.23;;;12.20;;
59127;SDS011;44912;52.754;5.994;2024-01-10T00:40:46;20.98;;;12.30;;
59127;SDS011;44912;52.754;5.994;2024-01-10T00:43:11;19.90;;;12.13;;
59127;SDS011;44912;52.754;5.994;2024-01-10T00:45:37;19.92;;;12.20;;
59127;SDS011;44912;52.754;5.994;2024-01-10T00:48:03;20.20;;;11.90;;
59127;SDS011;44912;52.754;5.994;2024-01-10T00:50:29;20.70;;;11.82;;
59127;SDS011;44912;52.754;5.994;2024-01-10T00:52:54;21.73;;;12.27;;
59127;SDS011;44912;52.754;5.994;2024-01-10T00:55:20;20.00;;;12.45;;
59127;SDS011;44912;52.754;5.994;2024-01-10T00:57:46;21.65;;;12.45;;
59127;SDS011;44912;52.754;5.994;2024-01-10T01:00:11;19.50;;;12.60;;
59127;SDS011;44912;52.754;5.994;2024-01-10T01:02:37;18.80;;;11.77;;
59127;SDS011;44912;52.754;5.994;2024-01-10T01:05:06;18.38;;;11.70;;
59127;SDS011;44912;52.754;5.994;2024-01-10T01:07:32;18.45;;;11.35;;
59127;SDS011;44912;52.754;5.994;2024-01-10T01:09:58;18.17;;;11.15;;
59127;SDS011;44912;52.754;5.994;2024-01-10T01:12:23;18.63;;;12.07;;
59127;SDS011;44912;52.754;5.994;2024-01-10T01:14:49;20.25;;;12.25;;
59127;SDS011;44912;52.754;5.994;2024-01-10T01:17:15;19.58;;;11.48;;
59127;SDS011;44912;52.754;5.994;2024-01-10T01:19:40;20.27;;;12.15;;
59127;SDS011;44912;52.754;5.994;2024-01-10T01:22:06;20.08;;;11.90;;
59127;SDS011;44912;52.754;5.994;2024-01-10T01:24:31;19.25;;;12.38;;
59127;SDS011;44912;52.754;5.994;2024-01-10T01:26:57;21.10;;;12.63;;
59127;SDS011;44912;52.754;5.994;2024-01-10T01:29:23;19.00;;;12.05;;
59127;SDS011;44912;52.754;5.994;2024-01-10T01:31:49;19.05;;;12.05;;
59127;SDS011;44912;52.754;5.994;2024-01-10T01:34:15;20.88;;;12.40;;
59127;SDS011;44912;52.754;5.994;2024-01-10T01:36:40;18.67;;;11.90;;
59127;SDS011;44912;52.754;5.994;2024-01-10T01:39:06;18.55;;;11.52;;
59127;SDS011;44912;52.754;5.994;2024-01-10T01:41:32;20.92;;;12.80;;
59127;SDS011;44912;52.754;5.994;2024-01-10T01:43:57;19.30;;;12.55;;
59127;SDS011;44912;52.754;5.994;2024-01-10T01:46:23;20.63;;;11.93;;
59127;SDS011;44912;52.754;5.994;2024-01-10T01:48:49;21.02;;;12.18;;
59127;SDS011;44912;52.754;5.994;2024-01-10T01:51:15;18.95;;;11.80;;
59127;SDS011;44912;52.754;5.994;2024-01-10T01:53:43;19.67;;;12.20;;
59127;SDS011;44912;52.754;5.994;2024-01-10T01:56:09;20.58;;;12.45;;
59127;SDS011;44912;52.754;5.994;2024-01-10T01:58:37;19.92;;;11.77;;
59127;SDS011;44912;52.754;5.994;2024-01-10T02:01:05;18.63;;;12.50;;
59127;SDS011;44912;52.754;5.994;2024-01-10T02:03:31;19.75;;;12.35;;
59127;SDS011;44912;52.754;5.994;2024-01-10T02:05:57;19.60;;;11.35;;
59127;SDS011;44912;52.754;5.994;2024-01-10T02:08:24;20.67;;;12.00;;
59127;SDS011;44912;52.754;5.994;2024-01-10T02:10:50;20.05;;;12.13;;
59127;SDS011;44912;52.754;5.994;2024-01-10T02:13:16;19.80;;;11.90;;
59127;SDS011;44912;52.754;5.994;2024-01-10T02:15:42;20.42;;;12.98;;
59127;SDS011;44912;52.754;5.994;2024-01-10T02:18:08;18.80;;;11.63;;
59127;SDS011;44912;52.754;5.994;2024-01-10T02:20:37;19.92;;;12.00;;
59127;SDS011;44912;52.754;5.994;2024-01-10T02:23:03;19.88;;;11.55;;
59127;SDS011;44912;52.754;5.994;2024-01-10T02:25:29;19.13;;;11.02;;
59127;SDS011;44912;52.754;5.994;2024-01-10T02:27:54;18.55;;;11.82;;
59127;SDS011;44912;52.754;5.994;2024-01-10T02:30:20;18.63;;;11.65;;
59127;SDS011;44912;52.754;5.994;2024-01-10T02:32:46;20.15;;;10.90;;
59127;SDS011;44912;52.754;5.994;2024-01-10T02:35:11;18.48;;;12.15;;
59127;SDS011;44912;52.754;5.994;2024-01-10T02:37:37;20.35;;;12.38;;
59127;SDS011;44912;52.754;5.994;2024-01-10T02:40:03;20.85;;;12.23;;
59127;SDS011;44912;52.754;5.994;2024-01-10T02:42:29;21.15;;;11.77;;
59127;SDS011;44912;52.754;5.994;2024-01-10T02:44:55;19.30;;;12.00;;
59127;SDS011;44912;52.754;5.994;2024-01-10T02:47:21;19.48;;;11.65;;
59127;SDS011;44912;52.754;5.994;2024-01-10T02:49:46;18.83;;;11.07;;
59127;SDS011;44912;52.754;5.994;2024-01-10T02:52:12;20.60;;;12.00;;
59127;SDS011;44912;52.754;5.994;2024-01-10T02:54:38;18.05;;;11.20;;
59127;SDS011;44912;52.754;5.994;2024-01-10T02:57:03;22.58;;;11.82;;
59127;SDS011;44912;52.754;5.994;2024-01-10T02:59:29;19.45;;;12.05;;
59127;SDS011;44912;52.754;5.994;2024-01-10T03:01:54;18.70;;;12.15;;
59127;SDS011;44912;52.754;5.994;2024-01-10T03:04:20;19.98;;;11.90;;
59127;SDS011;44912;52.754;5.994;2024-01-10T03:06:46;20.55;;;11.90;;
59127;SDS011;44912;52.754;5.994;2024-01-10T03:09:11;18.88;;;11.55;;
59127;SDS011;44912;52.754;5.994;2024-01-10T03:11:37;22.90;;;12.55;;
59127;SDS011;44912;52.754;5.994;2024-01-10T03:14:04;19.40;;;12.00;;
59127;SDS011;44912;52.754;5.994;2024-01-10T03:16:33;19.85;;;12.13;;
59127;SDS011;44912;52.754;5.994;2024-01-10T03:18:59;21.92;;;12.88;;
59127;SDS011;44912;52.754;5.994;2024-01-10T03:21:25;19.65;;;12.30;;
59127;SDS011;44912;52.754;5.994;2024-01-10T03:23:52;21.92;;;12.13;;
59127;SDS011;44912;52.754;5.994;2024-01-10T03:26:21;22.52;;;12.95;;
59127;SDS011;44912;52.754;5.994;2024-01-10T03:28:47;22.67;;;13.27;;
59127;SDS011;44912;52.754;5.994;2024-01-10T03:31:13;17.58;;;11.18;;
59127;SDS011;44912;52.754;5.994;2024-01-10T03:33:39;20.95;;;12.90;;
59127;SDS011;44912;52.754;5.994;2024-01-10T03:36:06;19.75;;;11.73;;
59127;SDS011;44912;52.754;5.994;2024-01-10T03:38:33;22.10;;;12.30;;
59127;SDS011;44912;52.754;5.994;2024-01-10T03:40:59;19.55;;;11.93;;
59127;SDS011;44912;52.754;5.994;2024-01-10T03:43:25;20.50;;;11.65;;
59127;SDS011;44912;52.754;5.994;2024-01-10T03:45:50;18.50;;;11.55;;
59127;SDS011;44912;52.754;5.994;2024-01-10T03:48:16;18.02;;;11.55;;
59127;SDS011;44912;52.754;5.994;2024-01-10T03:50:41;22.75;;;12.57;;
59127;SDS011;44912;52.754;5.994;2024-01-10T03:53:07;19.58;;;11.82;;
59127;SDS011;44912;52.754;5.994;2024-01-10T03:55:32;21.90;;;12.55;;
59127;SDS011;44912;52.754;5.994;2024-01-10T03:57:58;20.15;;;12.13;;
59127;SDS011;44912;52.754;5.994;2024-01-10T04:00:24;19.80;;;11.98;;
59127;SDS011;44912;52.754;5.994;2024-01-10T04:02:51;22.13;;;12.20;;
59127;SDS011;44912;52.754;5.994;2024-01-10T04:05:17;21.52;;;12.10;;
59127;SDS011;44912;52.754;5.994;2024-01-10T04:07:43;20.88;;;12.82;;
59127;SDS011;44912;52.754;5.994;2024-01-10T04:10:09;19.83;;;12.57;;
59127;SDS011;44912;52.754;5.994;2024-01-10T04:12:36;24.77;;;13.52;;
59127;SDS011;44912;52.754;5.994;2024-01-10T04:15:03;20.50;;;11.80;;
59127;SDS011;44912;52.754;5.994;2024-01-10T04:17:29;24.15;;;14.20;;
59127;SDS011;44912;52.754;5.994;2024-01-10T04:19:55;24.30;;;13.05;;
59127;SDS011;44912;52.754;5.994;2024-01-10T04:22:21;22.95;;;13.20;;
59127;SDS011;44912;52.754;5.994;2024-01-10T04:24:48;24.70;;;14.07;;
59127;SDS011;44912;52.754;5.994;2024-01-10T04:27:14;21.65;;;13.40;;
59127;SDS011;44912;52.754;5.994;2024-01-10T04:29:40;20.33;;;12.93;;
59127;SDS011;44912;52.754;5.994;2024-01-10T04:32:06;22.00;;;13.73;;
59127;SDS011;44912;52.754;5.994;2024-01-10T04:34:32;22.20;;;13.10;;
59127;SDS011;44912;52.754;5.994;2024-01-10T04:36:57;20.20;;;12.10;;
59127;SDS011;44912;52.754;5.994;2024-01-10T04:39:23;20.92;;;12.80;;
59127;SDS011;44912;52.754;5.994;2024-01-10T04:41:48;20.83;;;13.02;;
59127;SDS011;44912;52.754;5.994;2024-01-10T04:44:14;23.95;;;13.75;;
59127;SDS011;44912;52.754;5.994;2024-01-10T04:46:40;23.63;;;13.13;;
59127;SDS011;44912;52.754;5.994;2024-01-10T04:49:06;23.17;;;13.18;;
59127;SDS011;44912;52.754;5.994;2024-01-10T04:51:32;22.20;;;13.13;;
59127;SDS011;44912;52.754;5.994;2024-01-10T04:53:58;20.42;;;12.50;;
59127;SDS011;44912;52.754;5.994;2024-01-10T04:56:23;19.35;;;12.32;;
59127;SDS011;44912;52.754;5.994;2024-01-10T04:58:49;22.08;;;13.02;;
59127;SDS011;44912;52.754;5.994;2024-01-10T05:01:15;20.85;;;12.40;;
59127;SDS011;44912;52.754;5.994;2024-01-10T05:03:40;21.15;;;12.82;;
59127;SDS011;44912;52.754;5.994;2024-01-10T05:06:06;21.25;;;12.60;;
59127;SDS011;44912;52.754;5.994;2024-01-10T05:08:32;21.85;;;13.27;;
59127;SDS011;44912;52.754;5.994;2024-01-10T05:10:57;22.35;;;13.10;;
59127;SDS011;44912;52.754;5.994;2024-01-10T05:13:23;20.08;;;12.05;;
59127;SDS011;44912;52.754;5.994;2024-01-10T05:15:49;23.27;;;13.02;;
59127;SDS011;44912;52.754;5.994;2024-01-10T05:18:16;19.58;;;11.48;;
59127;SDS011;44912;52.754;5.994;2024-01-10T05:20:42;20.70;;;12.00;;
59127;SDS011;44912;52.754;5.994;2024-01-10T05:23:07;20.50;;;12.80;;
59127;SDS011;44912;52.754;5.994;2024-01-10T05:25:33;20.50;;;12.55;;
59127;SDS011;44912;52.754;5.994;2024-01-10T05:27:59;21.05;;;12.63;;
59127;SDS011;44912;52.754;5.994;2024-01-10T05:30:24;19.38;;;12.25;;
59127;SDS011;44912;52.754;5.994;2024-01-10T05:32:50;19.48;;;12.82;;
59127;SDS011;44912;52.754;5.994;2024-01-10T05:35:16;18.98;;;11.82;;
59127;SDS011;44912;52.754;5.994;2024-01-10T05:37:41;23.08;;;12.43;;
59127;SDS011;44912;52.754;5.994;2024-01-10T05:40:07;20.08;;;11.90;;
59127;SDS011;44912;52.754;5.994;2024-01-10T05:42:33;19.63;;;12.45;;
59127;SDS011;44912;52.754;5.994;2024-01-10T05:45:00;20.83;;;12.27;;
59127;SDS011;44912;52.754;5.994;2024-01-10T05:47:27;21.85;;;12.50;;
59127;SDS011;44912;52.754;5.994;2024-01-10T05:49:53;19.48;;;12.40;;
59127;SDS011;44912;52.754;5.994;2024-01-10T05:52:19;19.23;;;11.80;;
59127;SDS011;44912;52.754;5.994;2024-01-10T05:54:45;20.23;;;11.50;;
59127;SDS011;44912;52.754;5.994;2024-01-10T05:57:11;21.13;;;12.43;;
59127;SDS011;44912;52.754;5.994;2024-01-10T05:59:36;19.17;;;12.63;;
59127;SDS011;44912;52.754;5.994;2024-01-10T06:02:02;20.48;;;12.55;;
59127;SDS011;44912;52.754;5.994;2024-01-10T06:04:28;20.23;;;12.32;;
59127;SDS011;44912;52.754;5.994;2024-01-10T06:06:59;21.20;;;12.18;;
59127;SDS011;44912;52.754;5.994;2024-01-10T06:09:25;22.08;;;12.45;;
59127;SDS011;44912;52.754;5.994;2024-01-10T06:11:51;18.98;;;11.98;;
59127;SDS011;44912;52.754;5.994;2024-01-10T06:14:17;20.50;;;12.18;;
59127;SDS011;44912;52.754;5.994;2024-01-10T06:16:42;17.80;;;11.48;;
59127;SDS011;44912;52.754;5.994;2024-01-10T06:19:10;21.23;;;12.27;;
59127;SDS011;44912;52.754;5.994;2024-01-10T06:21:36;19.42;;;12.60;;
59127;SDS011;44912;52.754;5.994;2024-01-10T06:24:02;20.58;;;12.73;;
59127;SDS011;44912;52.754;5.994;2024-01-10T06:26:28;19.42;;;12.27;;
59127;SDS011;44912;52.754;5.994;2024-01-10T06:28:53;20.60;;;12.48;;
59127;SDS011;44912;52.754;5.994;2024-01-10T06:31:19;19.55;;;12.02;;
59127;SDS011;44912;52.754;5.994;2024-01-10T06:33:45;23.17;;;11.95;;
59127;SDS011;44912;52.754;5.994;2024-01-10T06:36:11;20.58;;;12.70;;
59127;SDS011;44912;52.754;5.994;2024-01-10T06:38:38;18.55;;;12.15;;
59127;SDS011;44912;52.754;5.994;2024-01-10T06:41:08;20.08;;;12.15;;
59127;SDS011;44912;52.754;5.994;2024-01-10T06:43:34;17.58;;;12.05;;
59127;SDS011;44912;52.754;5.994;2024-01-10T06:46:01;20.88;;;12.80;;
59127;SDS011;44912;52.754;5.994;2024-01-10T06:48:28;19.30;;;12.02;;
59127;SDS011;44912;52.754;5.994;2024-01-10T06:50:59;22.17;;;12.38;;
59127;SDS011;44912;52.754;5.994;2024-01-10T06:53:25;18.67;;;12.23;;
59127;SDS011;44912;52.754;5.994;2024-01-10T06:55:50;20.27;;;12.57;;
59127;SDS011;44912;52.754;5.994;2024-01-10T06:58:16;20.13;;;12.77;;
59127;SDS011;44912;52.754;5.994;2024-01-10T07:00:41;19.70;;;11.82;;
59127;SDS011;44912;52.754;5.994;2024-01-10T07:03:07;19.77;;;11.98;;
59127;SDS011;44912;52.754;5.994;2024-01-10T07:05:33;19.80;;;12.20;;
59127;SDS011;44912;52.754;5.994;2024-01-10T07:07:58;19.48;;;12.25;;
59127;SDS011;44912;52.754;5.994;2024-01-10T07:10:27;20.23;;;12.20;;
59127;SDS011;44912;52.754;5.994;2024-01-10T07:12:56;19.55;;;11.48;;
59127;SDS011;44912;52.754;5.994;2024-01-10T07:15:22;19.35;;;11.95;;
59127;SDS011;44912;52.754;5.994;2024-01-10T07:17:48;21.55;;;12.85;;
59127;SDS011;44912;52.754;5.994;2024-01-10T07:20:14;19.02;;;12.20;;
59127;SDS011;44912;52.754;5.994;2024-01-10T07:22:39;21.25;;;12.95;;
59127;SDS011;44912;52.754;5.994;2024-01-10T07:25:07;21.75;;;13.65;;
59127;SDS011;44912;52.754;5.994;2024-01-10T07:27:39;21.92;;;12.88;;
59127;SDS011;44912;52.754;5.994;2024-01-10T07:30:06;22.73;;;12.82;;
59127;SDS011;44912;52.754;5.994;2024-01-10T07:32:44;19.70;;;12.48;;
59127;SDS011;44912;52.754;5.994;2024-01-10T07:35:11;19.95;;;12.07;;
59127;SDS011;44912;52.754;5.994;2024-01-10T07:37:39;19.50;;;12.32;;
59127;SDS011;44912;52.754;5.994;2024-01-10T07:40:08;19.08;;;12.40;;
59127;SDS011;44912;52.754;5.994;2024-01-10T07:42:35;20.63;;;12.02;;
59127;SDS011;44912;52.754;5.994;2024-01-10T07:45:02;19.83;;;12.52;;
59127;SDS011;44912;52.754;5.994;2024-01-10T07:47:31;19.95;;;11.88;;
59127;SDS011;44912;52.754;5.994;2024-01-10T07:49:57;18.67;;;11.82;;
59127;SDS011;44912;52.754;5.994;2024-01-10T07:52:23;20.02;;;12.82;;
59127;SDS011;44912;52.754;5.994;2024-01-10T07:54:49;20.00;;;12.45;;
59127;SDS011;44912;52.754;5.994;2024-01-10T07:57:14;18.30;;;11.00;;
59127;SDS011;44912;52.754;5.994;2024-01-10T07:59:43;19.48;;;11.32;;
59127;SDS011;44912;52.754;5.994;2024-01-10T08:02:09;19.95;;;11.85;;
59127;SDS011;44912;52.754;5.994;2024-01-10T08:04:35;19.35;;;10.57;;
59127;SDS011;44912;52.754;5.994;2024-01-10T08:07:01;18.15;;;11.30;;
59127;SDS011;44912;52.754;5.994;2024-01-10T08:09:26;17.25;;;11.38;;
59127;SDS011;44912;52.754;5.994;2024-01-10T08:11:52;17.25;;;10.30;;
59127;SDS011;44912;52.754;5.994;2024-01-10T08:14:18;15.95;;;9.68;;
59127;SDS011;44912;52.754;5.994;2024-01-10T08:16:43;19.02;;;10.98;;
59127;SDS011;44912;52.754;5.994;2024-01-10T08:19:10;18.08;;;10.80;;
59127;SDS011;44912;52.754;5.994;2024-01-10T08:21:36;18.50;;;11.20;;
59127;SDS011;44912;52.754;5.994;2024-01-10T08:24:02;17.38;;;11.05;;
59127;SDS011;44912;52.754;5.994;2024-01-10T08:26:28;19.90;;;12.60;;
59127;SDS011;44912;52.754;5.994;2024-01-10T08:28:54;19.73;;;12.13;;
59127;SDS011;44912;52.754;5.994;2024-01-10T08:31:19;17.80;;;11.50;;
59127;SDS011;44912;52.754;5.994;2024-01-10T08:33:45;21.30;;;12.43;;
59127;SDS011;44912;52.754;5.994;2024-01-10T08:36:12;18.00;;;11.68;;
59127;SDS011;44912;52.754;5.994;2024-01-10T08:38:39;18.75;;;11.85;;
59127;SDS011;44912;52.754;5.994;2024-01-10T08:41:05;18.27;;;11.52;;
59127;SDS011;44912;52.754;5.994;2024-01-10T08:43:32;18.98;;;11.88;;
59127;SDS011;44912;52.754;5.994;2024-01-10T08:45:58;19.98;;;11.88;;
59127;SDS011;44912;52.754;5.994;2024-01-10T08:48:24;15.63;;;10.05;;
59127;SDS011;44912;52.754;5.994;2024-01-10T08:50:50;17.20;;;11.02;;
59127;SDS011;44912;52.754;5.994;2024-01-10T08:53:16;17.73;;;10.82;;
59127;SDS011;44912;52.754;5.994;2024-01-10T08:55:42;19.10;;;12.43;;
59127;SDS011;44912;52.754;5.994;2024-01-10T08:58:07;17.02;;;10.98;;
59127;SDS011;44912;52.754;5.994;2024-01-10T09:00:33;16.90;;;10.57;;
59127;SDS011;44912;52.754;5.994;2024-01-10T09:02:59;19.40;;;11.77;;
59127;SDS011;44912;52.754;5.994;2024-01-10T09:05:25;19.65;;;11.40;;
59127;SDS011;44912;52.754;5.994;2024-01-10T09:07:51;15.98;;;10.57;;
59127;SDS011;44912;52.754;5.994;2024-01-10T09:10:18;16.63;;;10.48;;
59127;SDS011;44912;52.754;5.994;2024-01-10T09:12:46;17.15;;;11.07;;
59127;SDS011;44912;52.754;5.994;2024-01-10T09:15:12;18.73;;;11.32;;
59127;SDS011;44912;52.754;5.994;2024-01-10T09:17:40;17.40;;;10.77;;
59127;SDS011;44912;52.754;5.994;2024-01-10T09:20:06;18.52;;;11.60;;
59127;SDS011;44912;52.754;5.994;2024-01-10T09:22:33;18.35;;;11.18;;
59127;SDS011;44912;52.754;5.994;2024-01-10T09:24:59;17.67;;;10.85;;
59127;SDS011;44912;52.754;5.994;2024-01-10T09:27:30;18.40;;;10.95;;
59127;SDS011;44912;52.754;5.994;2024-01-10T09:29:59;15.88;;;10.48;;
59127;SDS011;44912;52.754;5.994;2024-01-10T09:32:30;16.40;;;10.82;;
59127;SDS011;44912;52.754;5.994;2024-01-10T09:34:55;17.20;;;11.30;;
59127;SDS011;44912;52.754;5.994;2024-01-10T09:37:21;17.10;;;11.05;;
59127;SDS011;44912;52.754;5.994;2024-01-10T09:39:48;14.82;;;9.88;;
59127;SDS011;44912;52.754;5.994;2024-01-10T09:42:14;17.02;;;10.52;;
59127;SDS011;44912;52.754;5.994;2024-01-10T09:44:40;17.25;;;11.10;;
59127;SDS011;44912;52.754;5.994;2024-01-10T09:47:06;14.77;;;9.35;;
59127;SDS011;44912;52.754;5.994;2024-01-10T09:49:34;15.95;;;10.73;;
59127;SDS011;44912;52.754;5.994;2024-01-10T09:52:01;17.50;;;10.98;;
59127;SDS011;44912;52.754;5.994;2024-01-10T09:54:30;16.00;;;9.80;;
59127;SDS011;44912;52.754;5.994;2024-01-10T09:56:56;18.00;;;11.00;;
59127;SDS011;44912;52.754;5.994;2024-01-10T09:59:22;16.33;;;9.75;;
59127;SDS011;44912;52.754;5.994;2024-01-10T10:01:49;14.68;;;9.68;;
59127;SDS011;44912;52.754;5.994;2024-01-10T10:04:17;16.10;;;10.57;;
59127;SDS011;44912;52.754;5.994;2024-01-10T10:06:44;17.15;;;10.63;;
59127;SDS011;44912;52.754;5.994;2024-01-10T10:09:10;17.23;;;10.38;;
59127;SDS011;44912;52.754;5.994;2024-01-10T10:11:37;14.65;;;9.52;;
59127;SDS011;44912;52.754;5.994;2024-01-10T10:14:15;15.02;;;9.68;;
59127;SDS011;44912;52.754;5.994;2024-01-10T10:16:43;16.67;;;9.43;;
59127;SDS011;44912;52.754;5.994;2024-01-10T10:19:09;15.75;;;9.70;;
59127;SDS011;44912;52.754;5.994;2024-01-10T10:21:36;16.23;;;10.57;;
59127;SDS011;44912;52.754;5.994;2024-01-10T10:24:03;15.77;;;10.43;;
59127;SDS011;44912;52.754;5.994;2024-01-10T10:26:29;14.55;;;9.70;;
59127;SDS011;44912;52.754;5.994;2024-01-10T10:28:58;15.75;;;10.35;;
59127;SDS011;44912;52.754;5.994;2024-01-10T10:31:24;13.35;;;9.27;;
59127;SDS011;44912;52.754;5.994;2024-01-10T10:33:50;15.88;;;10.38;;
59127;SDS011;44912;52.754;5.994;2024-01-10T10:36:17;14.23;;;9.63;;
59127;SDS011;44912;52.754;5.994;2024-01-10T10:38:43;17.13;;;9.90;;
59127;SDS011;44912;52.754;5.994;2024-01-10T10:41:09;15.13;;;9.45;;
59127;SDS011;44912;52.754;5.994;2024-01-10T10:43:38;15.18;;;9.38;;
59127;SDS011;44912;52.754;5.994;2024-01-10T10:46:05;15.80;;;9.43;;
59127;SDS011;44912;52.754;5.994;2024-01-10T10:48:32;17.30;;;9.32;;
59127;SDS011;44912;52.754;5.994;2024-01-10T10:53:34;14.65;;;8.85;;
59127;SDS011;44912;52.754;5.994;2024-01-10T10:56:02;14.95;;;9.00;;
59127;SDS011;44912;52.754;5.994;2024-01-10T10:58:35;15.55;;;9.02;;
59127;SDS011;44912;52.754;5.994;2024-01-10T11:01:04;13.13;;;8.18;;
59127;SDS011;44912;52.754;5.994;2024-01-10T11:03:31;15.23;;;8.68;;
59127;SDS011;44912;52.754;5.994;2024-01-10T11:06:05;14.02;;;8.90;;
59127;SDS011;44912;52.754;5.994;2024-01-10T11:08:38;17.30;;;9.10;;
59127;SDS011;44912;52.754;5.994;2024-01-10T11:14:17;16.17;;;8.68;;
59127;SDS011;44912;52.754;5.994;2024-01-10T11:24:49;13.65;;;8.48;;
59127;SDS011;44912;52.754;5.994;2024-01-10T11:27:15;14.75;;;8.23;;
59127;SDS011;44912;52.754;5.994;2024-01-10T11:29:41;14.25;;;8.45;;
59127;SDS011;44912;52.754;5.994;2024-01-10T11:32:12;14.60;;;8.02;;
59127;SDS011;44912;52.754;5.994;2024-01-10T11:34:49;12.50;;;7.18;;
59127;SDS011;44912;52.754;5.994;2024-01-10T11:37:39;13.80;;;7.20;;
59127;SDS011;44912;52.754;5.994;2024-01-10T11:40:08;13.05;;;7.75;;
59127;SDS011;44912;52.754;5.994;2024-01-10T11:42:44;12.70;;;7.35;;
59127;SDS011;44912;52.754;5.994;2024-01-10T11:47:56;13.48;;;7.82;;
59127;SDS011;44912;52.754;5.994;2024-01-10T11:50:22;13.68;;;7.97;;
59127;SDS011;44912;52.754;5.994;2024-01-10T11:52:52;14.02;;;7.40;;
59127;SDS011;44912;52.754;5.994;2024-01-10T11:58:13;14.32;;;7.93;;
59127;SDS011;44912;52.754;5.994;2024-01-10T12:00:39;15.02;;;7.40;;
59127;SDS011;44912;52.754;5.994;2024-01-10T12:03:06;13.07;;;7.45;;
59127;SDS011;44912;52.754;5.994;2024-01-10T12:05:32;13.15;;;7.53;;
59127;SDS011;44912;52.754;5.994;2024-01-10T12:08:06;13.02;;;7.13;;
59127;SDS011;44912;52.754;5.994;2024-01-10T12:10:33;13.27;;;7.50;;
59127;SDS011;44912;52.754;5.994;2024-01-10T12:13:01;16.88;;;7.28;;
59127;SDS011;44912;52.754;5.994;2024-01-10T12:15:28;14.65;;;7.32;;
59127;SDS011;44912;52.754;5.994;2024-01-10T12:17:54;15.45;;;7.20;;
59127;SDS011;44912;52.754;5.994;2024-01-10T12:20:20;12.00;;;6.57;;
59127;SDS011;44912;52.754;5.994;2024-01-10T12:22:46;15.13;;;6.60;;
59127;SDS011;44912;52.754;5.994;2024-01-10T12:25:12;13.65;;;6.65;;
59127;SDS011;44912;52.754;5.994;2024-01-10T12:27:38;13.18;;;6.60;;
59127;SDS011;44912;52.754;5.994;2024-01-10T12:30:04;11.45;;;6.20;;
59127;SDS011;44912;52.754;5.994;2024-01-10T12:32:31;14.40;;;7.28;;
59127;SDS011;44912;52.754;5.994;2024-01-10T12:35:01;13.13;;;6.53;;
59127;SDS011;44912;52.754;5.994;2024-01-10T12:37:27;13.05;;;6.32;;
59127;SDS011;44912;52.754;5.994;2024-01-10T12:39:53;13.02;;;6.30;;
59127;SDS011;44912;52.754;5.994;2024-01-10T12:42:18;13.00;;;6.68;;
59127;SDS011;44912;52.754;5.994;2024-01-10T12:44:44;11.93;;;6.43;;
59127;SDS011;44912;52.754;5.994;2024-01-10T12:47:21;13.43;;;6.45;;
59127;SDS011;44912;52.754;5.994;2024-01-10T12:49:48;12.23;;;6.25;;
59127;SDS011;44912;52.754;5.994;2024-01-10T12:52:14;11.70;;;6.22;;
59127;SDS011;44912;52.754;5.994;2024-01-10T12:54:40;12.77;;;6.68;;
59127;SDS011;44912;52.754;5.994;2024-01-10T12:57:05;13.98;;;7.03;;
59127;SDS011;44912;52.754;5.994;2024-01-10T12:59:34;13.10;;;6.50;;
59127;SDS011;44912;52.754;5.994;2024-01-10T13:02:00;11.32;;;5.90;;
59127;SDS011;44912;52.754;5.994;2024-01-10T13:04:25;11.77;;;5.97;;
59127;SDS011;44912;52.754;5.994;2024-01-10T13:06:51;12.45;;;6.05;;
59127;SDS011;44912;52.754;5.994;2024-01-10T13:09:17;11.60;;;6.32;;
59127;SDS011;44912;52.754;5.994;2024-01-10T13:11:43;13.43;;;7.03;;
59127;SDS011;44912;52.754;5.994;2024-01-10T13:14:10;12.93;;;6.57;;
59127;SDS011;44912;52.754;5.994;2024-01-10T13:16:36;12.40;;;5.95;;
59127;SDS011;44912;52.754;5.994;2024-01-10T13:19:02;16.30;;;6.93;;
59127;SDS011;44912;52.754;5.994;2024-01-10T13:21:27;13.35;;;6.65;;
59127;SDS011;44912;52.754;5.994;2024-01-10T13:23:53;13.05;;;6.47;;
59127;SDS011;44912;52.754;5.994;2024-01-10T13:26:19;14.27;;;6.50;;
59127;SDS011;44912;52.754;5.994;2024-01-10T13:28:44;14.45;;;6.78;;
59127;SDS011;44912;52.754;5.994;2024-01-10T13:31:10;13.00;;;6.82;;
59127;SDS011;44912;52.754;5.994;2024-01-10T13:33:36;13.15;;;6.25;;
59127;SDS011;44912;52.754;5.994;2024-01-10T13:36:03;12.82;;;6.93;;
59127;SDS011;44912;52.754;5.994;2024-01-10T13:38:29;13.57;;;7.13;;
59127;SDS011;44912;52.754;5.994;2024-01-10T13:40:55;12.88;;;6.63;;
59127;SDS011;44912;52.754;5.994;2024-01-10T13:43:21;14.38;;;6.72;;
59127;SDS011;44912;52.754;5.994;2024-01-10T13:45:47;14.30;;;7.13;;
59127;SDS011;44912;52.754;5.994;2024-01-10T13:48:12;16.00;;;7.68;;
59127;SDS011;44912;52.754;5.994;2024-01-10T13:50:38;15.18;;;7.68;;
59127;SDS011;44912;52.754;5.994;2024-01-10T13:53:04;13.23;;;7.05;;
59127;SDS011;44912;52.754;5.994;2024-01-10T13:55:30;15.13;;;7.32;;
59127;SDS011;44912;52.754;5.994;2024-01-10T13:57:56;14.68;;;7.10;;
59127;SDS011;44912;52.754;5.994;2024-01-10T14:00:22;12.45;;;6.55;;
59127;SDS011;44912;52.754;5.994;2024-01-10T14:02:47;14.05;;;6.97;;
59127;SDS011;44912;52.754;5.994;2024-01-10T14:05:13;14.55;;;7.07;;
59127;SDS011;44912;52.754;5.994;2024-01-10T14:07:39;13.13;;;6.32;;
59127;SDS011;44912;52.754;5.994;2024-01-10T14:10:09;15.80;;;7.45;;
59127;SDS011;44912;52.754;5.994;2024-01-10T14:12:35;12.77;;;6.65;;
59127;SDS011;44912;52.754;5.994;2024-01-10T14:15:01;13.30;;;6.93;;
59127;SDS011;44912;52.754;5.994;2024-01-10T14:17:27;12.45;;;6.47;;
59127;SDS011;44912;52.754;5.994;2024-01-10T14:19:53;14.02;;;7.18;;
59127;SDS011;44912;52.754;5.994;2024-01-10T14:22:18;16.00;;;7.30;;
59127;SDS011;44912;52.754;5.994;2024-01-10T14:24:44;15.05;;;7.45;;
59127;SDS011;44912;52.754;5.994;2024-01-10T14:27:10;14.23;;;7.78;;
59127;SDS011;44912;52.754;5.994;2024-01-10T14:29:36;13.02;;;7.00;;
59127;SDS011;44912;52.754;5.994;2024-01-10T14:32:02;15.07;;;7.13;;
59127;SDS011;44912;52.754;5.994;2024-01-10T14:34:28;13.70;;;6.32;;
59127;SDS011;44912;52.754;5.994;2024-01-10T14:36:54;13.35;;;6.93;;
59127;SDS011;44912;52.754;5.994;2024-01-10T14:39:20;12.73;;;6.78;;
59127;SDS011;44912;52.754;5.994;2024-01-10T14:41:46;15.38;;;6.95;;